ANZ644 NZQN-NZCH
Flight info
| Callsign | ANZ644 |
|---|---|
| Flight time | 0h 38m |
| Altitude | 23000 |
| Route | QN Q787 TIMJO Y153 DOPKI |
| Aircraft | A320/M-SDE3FGHIRWY/LB1 |
Departure
| Time | 2026-05-01 14:47 |
|---|---|
| Airport | Queenstown Airport (NZQN) |
Arrival
| Time | 2026-05-01 15:25 |
|---|---|
| Airport | Christchurch International Airport (NZCH) |
| Time | Latitude | Longitude | Altitude | Speed | Heading |
|---|---|---|---|---|---|
| 2026-05-01 14:35 | -45.02198 | 168.74111 | 1172 ft | 0 kts | 252° |
| 2026-05-01 14:40 | -45.02194 | 168.74127 | 1173 ft | 4 kts | 259° |
| 2026-05-01 14:40 | -45.02194 | 168.74163 | 1171 ft | 4 kts | 290° |
| 2026-05-01 14:41 | -45.02208 | 168.74194 | 1170 ft | 4 kts | 321° |
| 2026-05-01 14:41 | -45.02224 | 168.74208 | 1171 ft | 0 kts | 341° |
| 2026-05-01 14:43 | -45.02209 | 168.74201 | 1170 ft | 6 kts | 341° |
| 2026-05-01 14:43 | -45.02158 | 168.74176 | 1171 ft | 9 kts | 341° |
| 2026-05-01 14:44 | -45.02106 | 168.74112 | 1171 ft | 12 kts | 297° |
| 2026-05-01 14:44 | -45.01963 | 168.74035 | 1176 ft | 14 kts | 14° |
| 2026-05-01 14:44 | -45.01945 | 168.73927 | 1174 ft | 18 kts | 257° |
| 2026-05-01 14:45 | -45.01976 | 168.73720 | 1172 ft | 25 kts | 257° |
| 2026-05-01 14:45 | -45.02006 | 168.73518 | 1164 ft | 2 kts | 142° |
| 2026-05-01 14:45 | -45.02004 | 168.73555 | 1165 ft | 5 kts | 80° |
| 2026-05-01 14:46 | -45.02003 | 168.73562 | 1165 ft | 0 kts | 78° |
| 2026-05-01 14:46 | -45.01945 | 168.73923 | 1175 ft | 81 kts | 77° |
| 2026-05-01 14:46 | -45.01763 | 168.75065 | 1187 ft | 153 kts | 77° |
| 2026-05-01 14:47 | -45.01511 | 168.76684 | 1728 ft | 174 kts | 76° |
| 2026-05-01 14:47 | -45.01240 | 168.78380 | 2588 ft | 179 kts | 76° |
| 2026-05-01 14:47 | -45.00973 | 168.80066 | 3507 ft | 170 kts | 76° |
| 2026-05-01 14:48 | -45.00232 | 168.83227 | 4686 ft | 174 kts | 48° |
| 2026-05-01 14:48 | -44.99309 | 168.84305 | 5230 ft | 173 kts | 22° |
| 2026-05-01 14:48 | -44.97018 | 168.84415 | 6289 ft | 166 kts | 333° |
| 2026-05-01 14:49 | -44.95397 | 168.82257 | 7336 ft | 162 kts | 292° |
| 2026-05-01 14:49 | -44.95146 | 168.79125 | 8330 ft | 164 kts | 270° |
| 2026-05-01 14:50 | -44.95170 | 168.76960 | 9011 ft | 167 kts | 264° |
| 2026-05-01 14:50 | -44.97111 | 168.73248 | 10148 ft | 195 kts | 206° |
| 2026-05-01 14:51 | -44.98455 | 168.72845 | 10681 ft | 203 kts | 184° |
| 2026-05-01 14:51 | -45.01129 | 168.74540 | 11382 ft | 238 kts | 134° |
| 2026-05-01 14:52 | -45.01969 | 168.79105 | 12351 ft | 254 kts | 76° |
| 2026-05-01 14:52 | -45.01221 | 168.81335 | 12863 ft | 253 kts | 47° |
| 2026-05-01 14:52 | -44.98177 | 168.83559 | 13722 ft | 257 kts | 12° |
| 2026-05-01 14:53 | -44.96404 | 168.84282 | 13926 ft | 274 kts | 12° |
| 2026-05-01 14:53 | -44.94491 | 168.85060 | 14087 ft | 298 kts | 12° |
| 2026-05-01 14:53 | -44.92420 | 168.85906 | 14263 ft | 321 kts | 13° |
| 2026-05-01 14:53 | -44.90204 | 168.86816 | 14410 ft | 344 kts | 13° |
| 2026-05-01 14:54 | -44.87841 | 168.87794 | 14597 ft | 361 kts | 13° |
| 2026-05-01 14:54 | -44.85441 | 168.88814 | 15051 ft | 368 kts | 16° |
| 2026-05-01 14:54 | -44.83142 | 168.90484 | 15578 ft | 378 kts | 35° |
| 2026-05-01 14:54 | -44.81307 | 168.93162 | 16160 ft | 384 kts | 52° |
| 2026-05-01 14:55 | -44.79733 | 168.96232 | 16731 ft | 387 kts | 53° |
| 2026-05-01 14:55 | -44.78162 | 168.99331 | 17286 ft | 391 kts | 53° |
| 2026-05-01 14:55 | -44.76581 | 169.02457 | 17848 ft | 394 kts | 53° |
| 2026-05-01 14:55 | -44.74985 | 169.05611 | 18408 ft | 397 kts | 52° |
| 2026-05-01 14:56 | -44.73371 | 169.08783 | 18962 ft | 400 kts | 52° |
| 2026-05-01 14:56 | -44.71739 | 169.11973 | 19457 ft | 404 kts | 52° |
| 2026-05-01 14:56 | -44.70090 | 169.15186 | 19955 ft | 407 kts | 52° |
| 2026-05-01 14:56 | -44.68427 | 169.18423 | 20456 ft | 410 kts | 52° |
| 2026-05-01 14:57 | -44.66752 | 169.21683 | 20959 ft | 413 kts | 53° |
| 2026-05-01 14:57 | -44.63374 | 169.28259 | 21960 ft | 418 kts | 53° |
| 2026-05-01 14:57 | -44.61668 | 169.31576 | 22436 ft | 420 kts | 53° |
| 2026-05-01 14:58 | -44.59953 | 169.34912 | 22893 ft | 423 kts | 53° |
| 2026-05-01 14:58 | -44.58218 | 169.38278 | 23349 ft | 426 kts | 53° |
| 2026-05-01 14:58 | -44.56472 | 169.41654 | 23547 ft | 428 kts | 53° |
| 2026-05-01 14:58 | -44.54771 | 169.45081 | 23570 ft | 429 kts | 58° |
| 2026-05-01 14:59 | -44.53433 | 169.48755 | 23570 ft | 429 kts | 66° |
| 2026-05-01 14:59 | -44.52197 | 169.52623 | 23567 ft | 430 kts | 65° |
| 2026-05-01 14:59 | -44.50974 | 169.56439 | 23570 ft | 429 kts | 65° |
| 2026-05-01 14:59 | -44.49763 | 169.60193 | 23566 ft | 429 kts | 65° |
| 2026-05-01 15:00 | -44.47335 | 169.67821 | 23568 ft | 429 kts | 65° |
| 2026-05-01 15:00 | -44.46065 | 169.71608 | 23568 ft | 429 kts | 64° |
| 2026-05-01 15:00 | -44.44724 | 169.75334 | 23559 ft | 429 kts | 62° |
| 2026-05-01 15:01 | -44.43321 | 169.79018 | 23559 ft | 429 kts | 61° |
| 2026-05-01 15:01 | -44.41883 | 169.82664 | 23564 ft | 428 kts | 60° |
| 2026-05-01 15:01 | -44.40430 | 169.86306 | 23565 ft | 428 kts | 60° |
| 2026-05-01 15:01 | -44.38982 | 169.89941 | 23563 ft | 428 kts | 60° |
| 2026-05-01 15:02 | -44.37548 | 169.93581 | 23563 ft | 428 kts | 60° |
| 2026-05-01 15:02 | -44.37063 | 169.94821 | 23563 ft | 428 kts | 60° |
| 2026-05-01 15:02 | -44.34704 | 170.00893 | 23564 ft | 428 kts | 61° |
| 2026-05-01 15:02 | -44.33288 | 170.04547 | 23564 ft | 428 kts | 61° |
| 2026-05-01 15:03 | -44.31863 | 170.08204 | 23563 ft | 428 kts | 60° |
| 2026-05-01 15:03 | -44.30439 | 170.11852 | 23562 ft | 428 kts | 61° |
| 2026-05-01 15:03 | -44.29016 | 170.15503 | 23562 ft | 428 kts | 61° |
| 2026-05-01 15:03 | -44.27593 | 170.19147 | 23561 ft | 428 kts | 60° |
| 2026-05-01 15:04 | -44.26167 | 170.22794 | 23563 ft | 428 kts | 60° |
| 2026-05-01 15:04 | -44.24742 | 170.26432 | 23554 ft | 428 kts | 60° |
| 2026-05-01 15:04 | -44.23314 | 170.30072 | 23559 ft | 428 kts | 60° |
| 2026-05-01 15:04 | -44.21881 | 170.33718 | 23542 ft | 428 kts | 60° |
| 2026-05-01 15:05 | -44.20451 | 170.37348 | 23540 ft | 428 kts | 60° |
| 2026-05-01 15:05 | -44.19018 | 170.40985 | 23537 ft | 428 kts | 60° |
| 2026-05-01 15:05 | -44.17586 | 170.44614 | 23539 ft | 428 kts | 60° |
| 2026-05-01 15:05 | -44.16151 | 170.48246 | 23530 ft | 428 kts | 60° |
| 2026-05-01 15:06 | -44.14714 | 170.51873 | 23536 ft | 428 kts | 60° |
| 2026-05-01 15:06 | -44.13276 | 170.55495 | 23541 ft | 428 kts | 60° |
| 2026-05-01 15:06 | -44.11835 | 170.59122 | 23540 ft | 428 kts | 60° |
| 2026-05-01 15:06 | -44.10396 | 170.62742 | 23519 ft | 428 kts | 60° |
| 2026-05-01 15:07 | -44.08954 | 170.66363 | 23519 ft | 428 kts | 60° |
| 2026-05-01 15:07 | -44.07512 | 170.69986 | 23519 ft | 428 kts | 60° |
| 2026-05-01 15:07 | -44.06087 | 170.73565 | 23516 ft | 428 kts | 60° |
| 2026-05-01 15:07 | -44.04645 | 170.77182 | 23500 ft | 428 kts | 60° |
| 2026-05-01 15:08 | -44.03199 | 170.80792 | 23502 ft | 428 kts | 60° |
| 2026-05-01 15:08 | -44.01751 | 170.84409 | 23506 ft | 428 kts | 60° |
| 2026-05-01 15:08 | -44.00304 | 170.88016 | 23515 ft | 427 kts | 60° |
| 2026-05-01 15:08 | -43.98855 | 170.91619 | 23501 ft | 427 kts | 60° |
| 2026-05-01 15:09 | -43.97400 | 170.95228 | 23502 ft | 427 kts | 60° |
| 2026-05-01 15:09 | -43.95949 | 170.98826 | 23502 ft | 427 kts | 60° |
| 2026-05-01 15:09 | -43.94499 | 171.02421 | 23517 ft | 426 kts | 60° |
| 2026-05-01 15:09 | -43.93051 | 171.06013 | 23511 ft | 426 kts | 60° |
| 2026-05-01 15:10 | -43.91613 | 171.09588 | 23369 ft | 425 kts | 60° |
| 2026-05-01 15:10 | -43.88728 | 171.16728 | 22045 ft | 421 kts | 60° |
| 2026-05-01 15:10 | -43.87307 | 171.20225 | 21162 ft | 413 kts | 60° |
| 2026-05-01 15:11 | -43.85909 | 171.23665 | 20247 ft | 407 kts | 60° |
| 2026-05-01 15:11 | -43.83180 | 171.30370 | 18762 ft | 387 kts | 60° |
| 2026-05-01 15:11 | -43.81881 | 171.33555 | 18226 ft | 372 kts | 60° |
| 2026-05-01 15:12 | -43.80632 | 171.36614 | 17747 ft | 360 kts | 60° |
| 2026-05-01 15:12 | -43.78215 | 171.42541 | 16803 ft | 347 kts | 59° |
| 2026-05-01 15:12 | -43.77051 | 171.45390 | 16347 ft | 342 kts | 59° |
| 2026-05-01 15:13 | -43.73508 | 171.54019 | 14955 ft | 346 kts | 59° |
| 2026-05-01 15:14 | -43.71128 | 171.59828 | 13977 ft | 348 kts | 62° |
| 2026-05-01 15:14 | -43.70255 | 171.62950 | 13509 ft | 349 kts | 75° |
| 2026-05-01 15:14 | -43.69889 | 171.68461 | 12740 ft | 347 kts | 94° |
| 2026-05-01 15:15 | -43.70200 | 171.75222 | 11381 ft | 359 kts | 94° |
| 2026-05-01 15:15 | -43.70488 | 171.82069 | 10446 ft | 355 kts | 94° |
| 2026-05-01 15:16 | -43.70764 | 171.88660 | 10141 ft | 332 kts | 94° |
| 2026-05-01 15:16 | -43.71016 | 171.94818 | 9865 ft | 311 kts | 94° |
| 2026-05-01 15:17 | -43.71240 | 172.00728 | 9089 ft | 304 kts | 90° |
| 2026-05-01 15:18 | -43.69914 | 172.09150 | 7346 ft | 295 kts | 75° |
| 2026-05-01 15:18 | -43.69390 | 172.11876 | 6784 ft | 292 kts | 75° |
| 2026-05-01 15:19 | -43.67875 | 172.19821 | 5255 ft | 278 kts | 75° |
| 2026-05-01 15:19 | -43.66901 | 172.24883 | 4415 ft | 273 kts | 74° |
| 2026-05-01 15:19 | -43.66423 | 172.27365 | 4349 ft | 262 kts | 74° |
| 2026-05-01 15:20 | -43.65521 | 172.32041 | 4154 ft | 242 kts | 74° |
| 2026-05-01 15:20 | -43.64924 | 172.34146 | 4053 ft | 230 kts | 57° |
| 2026-05-01 15:20 | -43.63901 | 172.35803 | 3798 ft | 227 kts | 39° |
| 2026-05-01 15:21 | -43.62691 | 172.37204 | 3486 ft | 227 kts | 39° |
| 2026-05-01 15:21 | -43.61487 | 172.38604 | 3181 ft | 226 kts | 39° |
| 2026-05-01 15:21 | -43.60298 | 172.39988 | 2879 ft | 219 kts | 39° |
| 2026-05-01 15:21 | -43.59166 | 172.41305 | 2592 ft | 207 kts | 39° |
| 2026-05-01 15:22 | -43.57094 | 172.43711 | 2080 ft | 181 kts | 39° |
| 2026-05-01 15:22 | -43.56180 | 172.44773 | 1831 ft | 164 kts | 39° |
| 2026-05-01 15:22 | -43.55357 | 172.45728 | 1628 ft | 147 kts | 39° |
| 2026-05-01 15:23 | -43.54593 | 172.46614 | 1432 ft | 141 kts | 39° |
| 2026-05-01 15:23 | -43.53847 | 172.47478 | 1241 ft | 139 kts | 39° |
| 2026-05-01 15:23 | -43.53106 | 172.48337 | 1057 ft | 139 kts | 39° |
| 2026-05-01 15:23 | -43.52368 | 172.49192 | 873 ft | 138 kts | 39° |
| 2026-05-01 15:24 | -43.51633 | 172.50042 | 665 ft | 138 kts | 39° |
| 2026-05-01 15:24 | -43.50900 | 172.50892 | 475 ft | 138 kts | 39° |
| 2026-05-01 15:24 | -43.50169 | 172.51738 | 296 ft | 137 kts | 39° |
| 2026-05-01 15:24 | -43.49439 | 172.52583 | 128 ft | 135 kts | 39° |
| 2026-05-01 15:25 | -43.48821 | 172.53298 | 112 ft | 93 kts | 40° |
| 2026-05-01 15:25 | -43.48500 | 172.53681 | 108 ft | 25 kts | 52° |
| 2026-05-01 15:25 | -43.48470 | 172.53857 | 106 ft | 14 kts | 72° |
| 2026-05-01 15:25 | -43.48467 | 172.53961 | 107 ft | 6 kts | 123° |
| 2026-05-01 15:26 | -43.48485 | 172.53999 | 108 ft | 5 kts | 122° |
| 2026-05-01 15:26 | -43.48508 | 172.54060 | 108 ft | 9 kts | 116° |
| 2026-05-01 15:26 | -43.48550 | 172.54144 | 107 ft | 12 kts | 130° |
| 2026-05-01 15:26 | -43.48599 | 172.54222 | 107 ft | 10 kts | 131° |
| 2026-05-01 15:27 | -43.48637 | 172.54283 | 107 ft | 6 kts | 133° |
| 2026-05-01 15:27 | -43.48672 | 172.54270 | 108 ft | 6 kts | 220° |
| 2026-05-01 15:27 | -43.48700 | 172.54236 | 108 ft | 3 kts | 219° |
| 2026-05-01 15:28 | -43.48707 | 172.54229 | 109 ft | 0 kts | 220° |